sensor_id;sensor_type;location;lat;lon;timestamp;P1;durP1;ratioP1;P2;durP2;ratioP2
48207;SDS011;33997;53.278;9.708;2022-11-20T00:01:38;25.45;;;12.30;;
48207;SDS011;33997;53.278;9.708;2022-11-20T00:04:04;28.50;;;13.93;;
48207;SDS011;33997;53.278;9.708;2022-11-20T00:06:29;24.65;;;12.80;;
48207;SDS011;33997;53.278;9.708;2022-11-20T00:08:56;24.70;;;13.70;;
48207;SDS011;33997;53.278;9.708;2022-11-20T00:11:24;24.27;;;13.25;;
48207;SDS011;33997;53.278;9.708;2022-11-20T00:13:52;23.75;;;12.70;;
48207;SDS011;33997;53.278;9.708;2022-11-20T00:16:20;31.10;;;13.00;;
48207;SDS011;33997;53.278;9.708;2022-11-20T00:18:48;27.63;;;12.73;;
48207;SDS011;33997;53.278;9.708;2022-11-20T00:21:14;26.33;;;12.07;;
48207;SDS011;33997;53.278;9.708;2022-11-20T00:23:42;25.40;;;11.57;;
48207;SDS011;33997;53.278;9.708;2022-11-20T00:26:10;22.25;;;11.27;;
48207;SDS011;33997;53.278;9.708;2022-11-20T00:28:37;24.58;;;12.13;;
48207;SDS011;33997;53.278;9.708;2022-11-20T00:31:04;25.00;;;12.98;;
48207;SDS011;33997;53.278;9.708;2022-11-20T00:33:31;21.42;;;12.00;;
48207;SDS011;33997;53.278;9.708;2022-11-20T00:36:02;25.35;;;11.38;;
48207;SDS011;33997;53.278;9.708;2022-11-20T00:38:30;22.30;;;11.20;;
48207;SDS011;33997;53.278;9.708;2022-11-20T00:41:00;23.50;;;11.88;;
48207;SDS011;33997;53.278;9.708;2022-11-20T00:43:27;29.33;;;11.18;;
48207;SDS011;33997;53.278;9.708;2022-11-20T00:46:00;25.48;;;11.77;;
48207;SDS011;33997;53.278;9.708;2022-11-20T00:48:30;29.50;;;12.18;;
48207;SDS011;33997;53.278;9.708;2022-11-20T00:50:55;27.65;;;12.70;;
48207;SDS011;33997;53.278;9.708;2022-11-20T00:53:21;32.97;;;11.70;;
48207;SDS011;33997;53.278;9.708;2022-11-20T00:55:56;28.83;;;12.30;;
48207;SDS011;33997;53.278;9.708;2022-11-20T00:58:22;28.35;;;12.27;;
48207;SDS011;33997;53.278;9.708;2022-11-20T01:00:48;26.58;;;11.45;;
48207;SDS011;33997;53.278;9.708;2022-11-20T01:03:14;27.02;;;11.15;;
48207;SDS011;33997;53.278;9.708;2022-11-20T01:05:41;23.77;;;11.77;;
48207;SDS011;33997;53.278;9.708;2022-11-20T01:08:07;25.02;;;12.55;;
48207;SDS011;33997;53.278;9.708;2022-11-20T01:10:32;20.25;;;10.93;;
48207;SDS011;33997;53.278;9.708;2022-11-20T01:12:58;28.35;;;12.23;;
48207;SDS011;33997;53.278;9.708;2022-11-20T01:15:42;21.38;;;11.00;;
48207;SDS011;33997;53.278;9.708;2022-11-20T01:18:07;22.83;;;11.45;;
48207;SDS011;33997;53.278;9.708;2022-11-20T01:20:36;22.85;;;11.13;;
48207;SDS011;33997;53.278;9.708;2022-11-20T01:23:04;20.90;;;10.52;;
48207;SDS011;33997;53.278;9.708;2022-11-20T01:25:30;22.75;;;11.07;;
48207;SDS011;33997;53.278;9.708;2022-11-20T01:27:55;22.00;;;11.27;;
48207;SDS011;33997;53.278;9.708;2022-11-20T01:30:21;24.33;;;11.38;;
48207;SDS011;33997;53.278;9.708;2022-11-20T01:32:46;25.10;;;12.02;;
48207;SDS011;33997;53.278;9.708;2022-11-20T01:35:12;22.67;;;10.10;;
48207;SDS011;33997;53.278;9.708;2022-11-20T01:37:37;22.73;;;10.55;;
48207;SDS011;33997;53.278;9.708;2022-11-20T01:40:03;23.45;;;11.18;;
48207;SDS011;33997;53.278;9.708;2022-11-20T01:42:29;22.50;;;11.27;;
48207;SDS011;33997;53.278;9.708;2022-11-20T01:48:13;22.50;;;11.85;;
48207;SDS011;33997;53.278;9.708;2022-11-20T01:50:39;19.60;;;10.88;;
48207;SDS011;33997;53.278;9.708;2022-11-20T01:53:07;21.83;;;11.05;;
48207;SDS011;33997;53.278;9.708;2022-11-20T01:55:40;23.65;;;11.00;;
48207;SDS011;33997;53.278;9.708;2022-11-20T01:58:12;23.52;;;10.77;;
48207;SDS011;33997;53.278;9.708;2022-11-20T02:00:38;24.63;;;12.48;;
48207;SDS011;33997;53.278;9.708;2022-11-20T02:03:06;26.60;;;11.73;;
48207;SDS011;33997;53.278;9.708;2022-11-20T02:08:06;22.50;;;11.40;;
48207;SDS011;33997;53.278;9.708;2022-11-20T02:10:32;29.00;;;11.57;;
48207;SDS011;33997;53.278;9.708;2022-11-20T02:12:58;23.55;;;11.43;;
48207;SDS011;33997;53.278;9.708;2022-11-20T02:15:43;22.92;;;10.50;;
48207;SDS011;33997;53.278;9.708;2022-11-20T02:18:10;24.77;;;12.25;;
48207;SDS011;33997;53.278;9.708;2022-11-20T02:20:38;27.00;;;12.02;;
48207;SDS011;33997;53.278;9.708;2022-11-20T02:25:36;21.85;;;12.00;;
48207;SDS011;33997;53.278;9.708;2022-11-20T02:28:02;23.65;;;10.98;;
48207;SDS011;33997;53.278;9.708;2022-11-20T02:30:28;25.83;;;11.50;;
48207;SDS011;33997;53.278;9.708;2022-11-20T02:32:54;28.10;;;11.38;;
48207;SDS011;33997;53.278;9.708;2022-11-20T02:37:45;20.88;;;11.07;;
48207;SDS011;33997;53.278;9.708;2022-11-20T02:40:13;24.75;;;11.35;;
48207;SDS011;33997;53.278;9.708;2022-11-20T02:42:38;23.80;;;11.65;;
48207;SDS011;33997;53.278;9.708;2022-11-20T02:45:04;22.38;;;10.43;;
48207;SDS011;33997;53.278;9.708;2022-11-20T02:47:31;26.13;;;10.88;;
48207;SDS011;33997;53.278;9.708;2022-11-20T02:49:56;24.00;;;11.20;;
48207;SDS011;33997;53.278;9.708;2022-11-20T02:52:22;23.00;;;11.73;;
48207;SDS011;33997;53.278;9.708;2022-11-20T02:54:48;21.15;;;11.23;;
48207;SDS011;33997;53.278;9.708;2022-11-20T02:57:13;27.05;;;11.88;;
48207;SDS011;33997;53.278;9.708;2022-11-20T02:59:39;21.98;;;11.63;;
48207;SDS011;33997;53.278;9.708;2022-11-20T03:02:04;26.23;;;12.35;;
48207;SDS011;33997;53.278;9.708;2022-11-20T03:04:30;25.77;;;12.23;;
48207;SDS011;33997;53.278;9.708;2022-11-20T03:06:55;25.23;;;11.23;;
48207;SDS011;33997;53.278;9.708;2022-11-20T03:09:21;23.83;;;11.57;;
48207;SDS011;33997;53.278;9.708;2022-11-20T03:11:46;27.80;;;11.95;;
48207;SDS011;33997;53.278;9.708;2022-11-20T03:14:12;23.75;;;11.43;;
48207;SDS011;33997;53.278;9.708;2022-11-20T03:16:38;24.45;;;12.63;;
48207;SDS011;33997;53.278;9.708;2022-11-20T03:19:03;27.15;;;12.70;;
48207;SDS011;33997;53.278;9.708;2022-11-20T03:21:29;25.65;;;12.10;;
48207;SDS011;33997;53.278;9.708;2022-11-20T03:23:54;23.85;;;12.63;;
48207;SDS011;33997;53.278;9.708;2022-11-20T03:26:21;26.65;;;12.65;;
48207;SDS011;33997;53.278;9.708;2022-11-20T03:28:49;28.63;;;12.27;;
48207;SDS011;33997;53.278;9.708;2022-11-20T03:31:17;29.00;;;13.52;;
48207;SDS011;33997;53.278;9.708;2022-11-20T03:33:44;28.38;;;12.60;;
48207;SDS011;33997;53.278;9.708;2022-11-20T03:36:11;26.48;;;12.82;;
48207;SDS011;33997;53.278;9.708;2022-11-20T03:38:38;28.95;;;12.75;;
48207;SDS011;33997;53.278;9.708;2022-11-20T03:41:04;27.38;;;12.60;;
48207;SDS011;33997;53.278;9.708;2022-11-20T03:43:32;30.35;;;12.77;;
48207;SDS011;33997;53.278;9.708;2022-11-20T03:45:58;28.10;;;14.00;;
48207;SDS011;33997;53.278;9.708;2022-11-20T03:48:23;28.52;;;13.27;;
48207;SDS011;33997;53.278;9.708;2022-11-20T03:50:49;26.38;;;13.52;;
48207;SDS011;33997;53.278;9.708;2022-11-20T03:53:16;28.42;;;14.05;;
48207;SDS011;33997;53.278;9.708;2022-11-20T03:55:42;28.90;;;13.90;;
48207;SDS011;33997;53.278;9.708;2022-11-20T03:58:08;28.58;;;13.55;;
48207;SDS011;33997;53.278;9.708;2022-11-20T04:00:34;27.77;;;13.93;;
48207;SDS011;33997;53.278;9.708;2022-11-20T04:03:00;26.65;;;13.70;;
48207;SDS011;33997;53.278;9.708;2022-11-20T04:05:26;29.08;;;13.95;;
48207;SDS011;33997;53.278;9.708;2022-11-20T04:07:52;29.10;;;13.40;;
48207;SDS011;33997;53.278;9.708;2022-11-20T04:10:18;31.20;;;15.27;;
48207;SDS011;33997;53.278;9.708;2022-11-20T04:12:43;24.60;;;12.65;;
48207;SDS011;33997;53.278;9.708;2022-11-20T04:15:09;27.08;;;13.95;;
48207;SDS011;33997;53.278;9.708;2022-11-20T04:17:34;25.27;;;14.10;;
48207;SDS011;33997;53.278;9.708;2022-11-20T04:20:00;32.83;;;14.18;;
48207;SDS011;33997;53.278;9.708;2022-11-20T04:22:26;27.88;;;14.05;;
48207;SDS011;33997;53.278;9.708;2022-11-20T04:24:52;30.83;;;14.75;;
48207;SDS011;33997;53.278;9.708;2022-11-20T04:27:17;30.33;;;15.52;;
48207;SDS011;33997;53.278;9.708;2022-11-20T04:29:43;28.23;;;14.60;;
48207;SDS011;33997;53.278;9.708;2022-11-20T04:32:08;31.75;;;14.63;;
48207;SDS011;33997;53.278;9.708;2022-11-20T04:34:34;33.10;;;14.50;;
48207;SDS011;33997;53.278;9.708;2022-11-20T04:37:00;29.05;;;14.27;;
48207;SDS011;33997;53.278;9.708;2022-11-20T04:39:25;28.88;;;15.25;;
48207;SDS011;33997;53.278;9.708;2022-11-20T04:41:51;29.08;;;14.27;;
48207;SDS011;33997;53.278;9.708;2022-11-20T04:44:36;30.00;;;15.90;;
48207;SDS011;33997;53.278;9.708;2022-11-20T04:47:01;33.30;;;15.85;;
48207;SDS011;33997;53.278;9.708;2022-11-20T04:49:27;32.10;;;15.90;;
48207;SDS011;33997;53.278;9.708;2022-11-20T04:51:53;28.13;;;15.15;;
48207;SDS011;33997;53.278;9.708;2022-11-20T04:54:18;28.15;;;15.05;;
48207;SDS011;33997;53.278;9.708;2022-11-20T04:56:46;26.75;;;15.05;;
48207;SDS011;33997;53.278;9.708;2022-11-20T04:59:13;28.33;;;15.35;;
48207;SDS011;33997;53.278;9.708;2022-11-20T05:01:38;31.83;;;16.25;;
48207;SDS011;33997;53.278;9.708;2022-11-20T05:04:04;32.70;;;15.48;;
48207;SDS011;33997;53.278;9.708;2022-11-20T05:06:30;34.20;;;17.15;;
48207;SDS011;33997;53.278;9.708;2022-11-20T05:08:56;33.13;;;16.08;;
48207;SDS011;33997;53.278;9.708;2022-11-20T05:11:22;31.08;;;16.77;;
48207;SDS011;33997;53.278;9.708;2022-11-20T05:13:48;30.27;;;16.02;;
48207;SDS011;33997;53.278;9.708;2022-11-20T05:16:16;28.98;;;16.00;;
48207;SDS011;33997;53.278;9.708;2022-11-20T05:18:43;30.17;;;16.95;;
48207;SDS011;33997;53.278;9.708;2022-11-20T05:21:09;35.35;;;16.70;;
48207;SDS011;33997;53.278;9.708;2022-11-20T05:23:35;32.63;;;17.42;;
48207;SDS011;33997;53.278;9.708;2022-11-20T05:26:01;34.58;;;17.23;;
48207;SDS011;33997;53.278;9.708;2022-11-20T05:28:28;36.08;;;17.77;;
48207;SDS011;33997;53.278;9.708;2022-11-20T05:30:54;41.35;;;18.05;;
48207;SDS011;33997;53.278;9.708;2022-11-20T05:33:20;36.88;;;18.83;;
48207;SDS011;33997;53.278;9.708;2022-11-20T05:35:45;34.25;;;17.35;;
48207;SDS011;33997;53.278;9.708;2022-11-20T05:38:11;38.45;;;18.33;;
48207;SDS011;33997;53.278;9.708;2022-11-20T05:40:37;34.25;;;17.92;;
48207;SDS011;33997;53.278;9.708;2022-11-20T05:43:02;39.40;;;18.08;;
48207;SDS011;33997;53.278;9.708;2022-11-20T05:45:28;35.35;;;18.58;;
48207;SDS011;33997;53.278;9.708;2022-11-20T05:47:57;39.47;;;19.10;;
48207;SDS011;33997;53.278;9.708;2022-11-20T05:50:23;39.88;;;18.75;;
48207;SDS011;33997;53.278;9.708;2022-11-20T05:52:48;40.85;;;18.92;;
48207;SDS011;33997;53.278;9.708;2022-11-20T05:55:14;39.55;;;19.13;;
48207;SDS011;33997;53.278;9.708;2022-11-20T05:57:39;38.40;;;19.65;;
48207;SDS011;33997;53.278;9.708;2022-11-20T06:00:05;41.45;;;20.02;;
48207;SDS011;33997;53.278;9.708;2022-11-20T06:02:33;36.90;;;18.67;;
48207;SDS011;33997;53.278;9.708;2022-11-20T06:05:00;36.47;;;18.50;;
48207;SDS011;33997;53.278;9.708;2022-11-20T06:07:25;35.33;;;18.42;;
48207;SDS011;33997;53.278;9.708;2022-11-20T06:09:51;37.17;;;18.90;;
48207;SDS011;33997;53.278;9.708;2022-11-20T06:12:16;35.30;;;18.60;;
48207;SDS011;33997;53.278;9.708;2022-11-20T06:14:45;37.33;;;19.67;;
48207;SDS011;33997;53.278;9.708;2022-11-20T06:17:10;39.17;;;20.13;;
48207;SDS011;33997;53.278;9.708;2022-11-20T06:19:36;32.40;;;18.67;;
48207;SDS011;33997;53.278;9.708;2022-11-20T06:22:01;42.42;;;20.98;;
48207;SDS011;33997;53.278;9.708;2022-11-20T06:24:26;36.60;;;20.05;;
48207;SDS011;33997;53.278;9.708;2022-11-20T06:26:52;41.78;;;21.10;;
48207;SDS011;33997;53.278;9.708;2022-11-20T06:29:17;40.95;;;20.40;;
48207;SDS011;33997;53.278;9.708;2022-11-20T06:31:43;34.72;;;19.45;;
48207;SDS011;33997;53.278;9.708;2022-11-20T06:34:09;38.47;;;19.70;;
48207;SDS011;33997;53.278;9.708;2022-11-20T06:36:35;40.75;;;21.05;;
48207;SDS011;33997;53.278;9.708;2022-11-20T06:39:00;43.45;;;20.67;;
48207;SDS011;33997;53.278;9.708;2022-11-20T06:41:26;41.17;;;20.38;;
48207;SDS011;33997;53.278;9.708;2022-11-20T06:43:52;38.22;;;20.52;;
48207;SDS011;33997;53.278;9.708;2022-11-20T06:46:19;39.53;;;20.98;;
48207;SDS011;33997;53.278;9.708;2022-11-20T06:48:45;39.40;;;19.25;;
48207;SDS011;33997;53.278;9.708;2022-11-20T06:51:11;35.67;;;20.88;;
48207;SDS011;33997;53.278;9.708;2022-11-20T06:53:37;39.60;;;21.45;;
48207;SDS011;33997;53.278;9.708;2022-11-20T06:56:03;35.28;;;20.38;;
48207;SDS011;33997;53.278;9.708;2022-11-20T06:58:30;34.53;;;19.52;;
48207;SDS011;33997;53.278;9.708;2022-11-20T07:01:00;43.15;;;22.02;;
48207;SDS011;33997;53.278;9.708;2022-11-20T07:03:34;42.53;;;20.20;;
48207;SDS011;33997;53.278;9.708;2022-11-20T07:06:01;37.42;;;21.27;;
48207;SDS011;33997;53.278;9.708;2022-11-20T07:08:27;40.25;;;21.25;;
48207;SDS011;33997;53.278;9.708;2022-11-20T07:10:52;38.78;;;20.67;;
48207;SDS011;33997;53.278;9.708;2022-11-20T07:13:22;42.10;;;20.70;;
48207;SDS011;33997;53.278;9.708;2022-11-20T07:15:47;40.08;;;20.80;;
48207;SDS011;33997;53.278;9.708;2022-11-20T07:18:12;38.80;;;21.33;;
48207;SDS011;33997;53.278;9.708;2022-11-20T07:20:38;38.03;;;20.20;;
48207;SDS011;33997;53.278;9.708;2022-11-20T07:23:03;39.03;;;21.30;;
48207;SDS011;33997;53.278;9.708;2022-11-20T07:25:29;35.55;;;20.42;;
48207;SDS011;33997;53.278;9.708;2022-11-20T07:27:58;37.85;;;21.05;;
48207;SDS011;33997;53.278;9.708;2022-11-20T07:30:24;40.90;;;21.40;;
48207;SDS011;33997;53.278;9.708;2022-11-20T07:32:51;39.13;;;20.13;;
48207;SDS011;33997;53.278;9.708;2022-11-20T07:35:17;40.75;;;20.13;;
48207;SDS011;33997;53.278;9.708;2022-11-20T07:37:43;37.90;;;21.65;;
48207;SDS011;33997;53.278;9.708;2022-11-20T07:40:08;32.70;;;19.60;;
48207;SDS011;33997;53.278;9.708;2022-11-20T07:42:34;41.25;;;20.42;;
48207;SDS011;33997;53.278;9.708;2022-11-20T07:44:59;34.80;;;20.25;;
48207;SDS011;33997;53.278;9.708;2022-11-20T07:47:25;37.97;;;20.15;;
48207;SDS011;33997;53.278;9.708;2022-11-20T07:49:50;33.70;;;19.25;;
48207;SDS011;33997;53.278;9.708;2022-11-20T07:52:16;30.42;;;18.08;;
48207;SDS011;33997;53.278;9.708;2022-11-20T07:54:41;36.35;;;19.20;;
48207;SDS011;33997;53.278;9.708;2022-11-20T07:57:07;39.35;;;20.48;;
48207;SDS011;33997;53.278;9.708;2022-11-20T07:59:32;32.55;;;19.00;;
48207;SDS011;33997;53.278;9.708;2022-11-20T08:01:58;35.75;;;19.27;;
48207;SDS011;33997;53.278;9.708;2022-11-20T08:04:23;36.92;;;20.60;;
48207;SDS011;33997;53.278;9.708;2022-11-20T08:06:49;34.45;;;18.77;;
48207;SDS011;33997;53.278;9.708;2022-11-20T08:09:14;33.97;;;19.23;;
48207;SDS011;33997;53.278;9.708;2022-11-20T08:11:40;35.33;;;19.42;;
48207;SDS011;33997;53.278;9.708;2022-11-20T08:14:23;32.28;;;18.77;;
48207;SDS011;33997;53.278;9.708;2022-11-20T08:16:49;33.20;;;18.58;;
48207;SDS011;33997;53.278;9.708;2022-11-20T08:19:16;33.55;;;19.50;;
48207;SDS011;33997;53.278;9.708;2022-11-20T08:21:43;34.45;;;18.55;;
48207;SDS011;33997;53.278;9.708;2022-11-20T08:24:09;31.42;;;18.33;;
48207;SDS011;33997;53.278;9.708;2022-11-20T08:26:35;31.40;;;18.70;;
48207;SDS011;33997;53.278;9.708;2022-11-20T08:29:02;34.90;;;19.95;;
48207;SDS011;33997;53.278;9.708;2022-11-20T08:31:28;31.60;;;18.35;;
48207;SDS011;33997;53.278;9.708;2022-11-20T08:33:54;34.40;;;18.80;;
48207;SDS011;33997;53.278;9.708;2022-11-20T08:36:19;31.38;;;18.48;;
48207;SDS011;33997;53.278;9.708;2022-11-20T08:38:49;27.23;;;17.83;;
48207;SDS011;33997;53.278;9.708;2022-11-20T08:41:15;33.20;;;18.70;;
48207;SDS011;33997;53.278;9.708;2022-11-20T08:43:54;33.03;;;19.30;;
48207;SDS011;33997;53.278;9.708;2022-11-20T08:46:24;32.88;;;18.52;;
48207;SDS011;33997;53.278;9.708;2022-11-20T08:48:52;30.50;;;16.85;;
48207;SDS011;33997;53.278;9.708;2022-11-20T08:51:18;31.67;;;18.65;;
48207;SDS011;33997;53.278;9.708;2022-11-20T08:53:44;36.78;;;19.75;;
48207;SDS011;33997;53.278;9.708;2022-11-20T08:56:10;38.10;;;19.85;;
48207;SDS011;33997;53.278;9.708;2022-11-20T08:58:36;34.72;;;19.55;;
48207;SDS011;33997;53.278;9.708;2022-11-20T09:01:02;34.78;;;18.13;;
48207;SDS011;33997;53.278;9.708;2022-11-20T09:03:28;33.95;;;18.38;;
48207;SDS011;33997;53.278;9.708;2022-11-20T09:05:57;31.05;;;18.23;;
48207;SDS011;33997;53.278;9.708;2022-11-20T09:08:24;29.98;;;18.38;;
48207;SDS011;33997;53.278;9.708;2022-11-20T09:10:53;30.15;;;17.92;;
48207;SDS011;33997;53.278;9.708;2022-11-20T09:13:20;30.23;;;17.25;;
48207;SDS011;33997;53.278;9.708;2022-11-20T09:15:46;27.13;;;17.30;;
48207;SDS011;33997;53.278;9.708;2022-11-20T09:18:12;26.45;;;16.45;;
48207;SDS011;33997;53.278;9.708;2022-11-20T09:20:38;31.70;;;18.15;;
48207;SDS011;33997;53.278;9.708;2022-11-20T09:23:03;29.73;;;17.52;;
48207;SDS011;33997;53.278;9.708;2022-11-20T09:25:28;27.48;;;16.25;;
48207;SDS011;33997;53.278;9.708;2022-11-20T09:27:55;23.90;;;15.48;;
48207;SDS011;33997;53.278;9.708;2022-11-20T09:30:24;29.45;;;15.63;;
48207;SDS011;33997;53.278;9.708;2022-11-20T09:32:50;28.85;;;15.98;;
48207;SDS011;33997;53.278;9.708;2022-11-20T09:35:15;25.45;;;16.38;;
48207;SDS011;33997;53.278;9.708;2022-11-20T09:37:42;24.15;;;14.50;;
48207;SDS011;33997;53.278;9.708;2022-11-20T09:40:16;22.65;;;14.65;;
48207;SDS011;33997;53.278;9.708;2022-11-20T09:42:52;20.88;;;14.00;;
48207;SDS011;33997;53.278;9.708;2022-11-20T09:48:43;21.30;;;12.82;;
48207;SDS011;33997;53.278;9.708;2022-11-20T09:54:16;25.83;;;13.55;;
48207;SDS011;33997;53.278;9.708;2022-11-20T09:56:56;20.85;;;12.82;;
48207;SDS011;33997;53.278;9.708;2022-11-20T09:59:45;19.52;;;13.25;;
48207;SDS011;33997;53.278;9.708;2022-11-20T10:07:52;20.80;;;11.70;;
48207;SDS011;33997;53.278;9.708;2022-11-20T10:10:40;16.58;;;10.35;;
48207;SDS011;33997;53.278;9.708;2022-11-20T10:21:08;15.48;;;9.55;;
48207;SDS011;33997;53.278;9.708;2022-11-20T10:27:03;14.25;;;9.35;;
48207;SDS011;33997;53.278;9.708;2022-11-20T10:29:47;16.23;;;10.48;;
48207;SDS011;33997;53.278;9.708;2022-11-20T10:32:27;14.38;;;9.35;;
48207;SDS011;33997;53.278;9.708;2022-11-20T10:34:59;18.48;;;9.68;;
48207;SDS011;33997;53.278;9.708;2022-11-20T10:37:31;14.57;;;9.13;;
48207;SDS011;33997;53.278;9.708;2022-11-20T10:42:44;14.25;;;9.73;;
48207;SDS011;33997;53.278;9.708;2022-11-20T10:47:53;16.13;;;8.88;;
48207;SDS011;33997;53.278;9.708;2022-11-20T10:50:31;14.10;;;8.32;;
48207;SDS011;33997;53.278;9.708;2022-11-20T10:58:38;11.52;;;7.00;;
48207;SDS011;33997;53.278;9.708;2022-11-20T11:01:18;11.35;;;7.20;;
48207;SDS011;33997;53.278;9.708;2022-11-20T11:06:28;12.98;;;7.72;;
48207;SDS011;33997;53.278;9.708;2022-11-20T11:09:04;12.75;;;6.75;;
48207;SDS011;33997;53.278;9.708;2022-11-20T11:11:37;10.45;;;6.78;;
48207;SDS011;33997;53.278;9.708;2022-11-20T11:16:52;11.48;;;6.70;;
48207;SDS011;33997;53.278;9.708;2022-11-20T11:19:22;13.05;;;6.20;;
48207;SDS011;33997;53.278;9.708;2022-11-20T11:21:49;11.60;;;6.45;;
48207;SDS011;33997;53.278;9.708;2022-11-20T11:26:51;9.10;;;5.78;;
48207;SDS011;33997;53.278;9.708;2022-11-20T11:29:24;8.52;;;5.82;;
48207;SDS011;33997;53.278;9.708;2022-11-20T11:32:02;8.90;;;5.78;;
48207;SDS011;33997;53.278;9.708;2022-11-20T11:34:32;8.52;;;5.70;;
48207;SDS011;33997;53.278;9.708;2022-11-20T11:36:58;9.13;;;5.40;;
48207;SDS011;33997;53.278;9.708;2022-11-20T11:39:26;7.47;;;5.03;;
48207;SDS011;33997;53.278;9.708;2022-11-20T11:41:53;10.95;;;5.35;;
48207;SDS011;33997;53.278;9.708;2022-11-20T11:44:24;8.73;;;5.90;;
48207;SDS011;33997;53.278;9.708;2022-11-20T11:47:18;8.82;;;5.68;;
48207;SDS011;33997;53.278;9.708;2022-11-20T11:50:01;9.80;;;4.80;;
48207;SDS011;33997;53.278;9.708;2022-11-20T11:52:27;7.93;;;4.95;;
48207;SDS011;33997;53.278;9.708;2022-11-20T11:54:55;8.32;;;4.90;;
48207;SDS011;33997;53.278;9.708;2022-11-20T11:57:29;11.02;;;5.30;;
48207;SDS011;33997;53.278;9.708;2022-11-20T12:00:15;9.85;;;4.90;;
48207;SDS011;33997;53.278;9.708;2022-11-20T12:02:48;10.13;;;5.60;;
48207;SDS011;33997;53.278;9.708;2022-11-20T12:05:36;9.43;;;5.35;;
48207;SDS011;33997;53.278;9.708;2022-11-20T12:08:18;7.28;;;5.18;;
48207;SDS011;33997;53.278;9.708;2022-11-20T12:10:55;8.18;;;4.80;;
48207;SDS011;33997;53.278;9.708;2022-11-20T12:16:13;8.52;;;5.28;;
48207;SDS011;33997;53.278;9.708;2022-11-20T12:18:40;9.07;;;4.70;;
48207;SDS011;33997;53.278;9.708;2022-11-20T12:21:17;7.82;;;4.43;;
48207;SDS011;33997;53.278;9.708;2022-11-20T12:26:45;7.07;;;3.75;;
48207;SDS011;33997;53.278;9.708;2022-11-20T12:29:20;6.00;;;3.90;;
48207;SDS011;33997;53.278;9.708;2022-11-20T12:32:18;6.50;;;3.88;;
48207;SDS011;33997;53.278;9.708;2022-11-20T12:41:12;6.47;;;3.88;;
48207;SDS011;33997;53.278;9.708;2022-11-20T12:53:41;4.60;;;2.90;;
48207;SDS011;33997;53.278;9.708;2022-11-20T12:59:16;6.47;;;3.45;;
48207;SDS011;33997;53.278;9.708;2022-11-20T13:05:01;4.93;;;3.20;;
48207;SDS011;33997;53.278;9.708;2022-11-20T13:07:50;6.03;;;3.55;;
48207;SDS011;33997;53.278;9.708;2022-11-20T13:10:23;5.20;;;3.33;;
48207;SDS011;33997;53.278;9.708;2022-11-20T13:13:00;7.00;;;4.20;;
48207;SDS011;33997;53.278;9.708;2022-11-20T13:15:55;7.60;;;3.78;;
48207;SDS011;33997;53.278;9.708;2022-11-20T13:18:26;7.00;;;3.83;;
48207;SDS011;33997;53.278;9.708;2022-11-20T13:21:12;8.13;;;3.60;;
48207;SDS011;33997;53.278;9.708;2022-11-20T13:23:39;7.85;;;4.00;;
48207;SDS011;33997;53.278;9.708;2022-11-20T13:26:15;7.03;;;4.03;;
48207;SDS011;33997;53.278;9.708;2022-11-20T13:28:42;8.02;;;4.07;;
48207;SDS011;33997;53.278;9.708;2022-11-20T13:31:09;8.77;;;3.95;;
48207;SDS011;33997;53.278;9.708;2022-11-20T13:33:52;8.05;;;3.90;;
48207;SDS011;33997;53.278;9.708;2022-11-20T13:36:21;6.45;;;4.05;;
48207;SDS011;33997;53.278;9.708;2022-11-20T13:38:50;6.00;;;3.88;;
48207;SDS011;33997;53.278;9.708;2022-11-20T13:41:28;7.28;;;4.50;;
48207;SDS011;33997;53.278;9.708;2022-11-20T13:44:14;7.72;;;4.45;;
48207;SDS011;33997;53.278;9.708;2022-11-20T13:46:48;7.70;;;4.20;;
48207;SDS011;33997;53.278;9.708;2022-11-20T13:49:25;7.22;;;4.25;;
48207;SDS011;33997;53.278;9.708;2022-11-20T13:54:34;6.22;;;3.17;;
48207;SDS011;33997;53.278;9.708;2022-11-20T14:00:16;4.07;;;2.35;;
48207;SDS011;33997;53.278;9.708;2022-11-20T14:02:43;5.63;;;2.80;;
48207;SDS011;33997;53.278;9.708;2022-11-20T14:05:17;7.85;;;2.95;;
48207;SDS011;33997;53.278;9.708;2022-11-20T14:07:46;5.22;;;2.50;;
48207;SDS011;33997;53.278;9.708;2022-11-20T14:10:46;5.78;;;2.63;;
48207;SDS011;33997;53.278;9.708;2022-11-20T14:13:18;4.50;;;2.70;;
48207;SDS011;33997;53.278;9.708;2022-11-20T14:15:44;5.68;;;2.95;;
48207;SDS011;33997;53.278;9.708;2022-11-20T14:18:11;7.65;;;3.72;;
48207;SDS011;33997;53.278;9.708;2022-11-20T14:20:44;8.75;;;4.22;;
48207;SDS011;33997;53.278;9.708;2022-11-20T14:23:11;9.27;;;5.72;;
48207;SDS011;33997;53.278;9.708;2022-11-20T14:25:36;11.60;;;5.68;;
48207;SDS011;33997;53.278;9.708;2022-11-20T14:28:06;9.57;;;5.60;;
48207;SDS011;33997;53.278;9.708;2022-11-20T14:30:43;10.23;;;6.15;;
48207;SDS011;33997;53.278;9.708;2022-11-20T14:33:11;13.27;;;6.22;;
48207;SDS011;33997;53.278;9.708;2022-11-20T14:35:48;10.38;;;6.20;;
48207;SDS011;33997;53.278;9.708;2022-11-20T14:38:16;10.63;;;5.85;;
48207;SDS011;33997;53.278;9.708;2022-11-20T14:40:44;10.23;;;6.00;;
48207;SDS011;33997;53.278;9.708;2022-11-20T14:43:23;9.98;;;6.13;;
48207;SDS011;33997;53.278;9.708;2022-11-20T14:46:01;13.55;;;6.55;;
48207;SDS011;33997;53.278;9.708;2022-11-20T14:48:30;8.85;;;6.03;;
48207;SDS011;33997;53.278;9.708;2022-11-20T14:50:58;10.03;;;5.67;;
48207;SDS011;33997;53.278;9.708;2022-11-20T14:53:24;12.13;;;6.40;;
48207;SDS011;33997;53.278;9.708;2022-11-20T14:55:54;11.20;;;6.78;;
48207;SDS011;33997;53.278;9.708;2022-11-20T14:58:26;10.63;;;6.30;;
48207;SDS011;33997;53.278;9.708;2022-11-20T15:00:57;10.65;;;6.35;;
48207;SDS011;33997;53.278;9.708;2022-11-20T15:03:38;13.27;;;6.50;;
48207;SDS011;33997;53.278;9.708;2022-11-20T15:06:05;13.50;;;6.63;;
48207;SDS011;33997;53.278;9.708;2022-11-20T15:08:32;11.32;;;5.90;;
48207;SDS011;33997;53.278;9.708;2022-11-20T15:10:57;11.95;;;6.53;;
48207;SDS011;33997;53.278;9.708;2022-11-20T15:15:56;12.13;;;7.10;;
48207;SDS011;33997;53.278;9.708;2022-11-20T15:18:24;13.90;;;6.45;;
48207;SDS011;33997;53.278;9.708;2022-11-20T15:20:54;13.75;;;6.20;;
48207;SDS011;33997;53.278;9.708;2022-11-20T15:23:21;11.38;;;6.47;;
48207;SDS011;33997;53.278;9.708;2022-11-20T15:25:47;12.98;;;6.75;;
48207;SDS011;33997;53.278;9.708;2022-11-20T15:28:16;11.77;;;6.88;;
48207;SDS011;33997;53.278;9.708;2022-11-20T15:31:05;14.35;;;7.07;;
48207;SDS011;33997;53.278;9.708;2022-11-20T15:33:31;12.05;;;6.70;;
48207;SDS011;33997;53.278;9.708;2022-11-20T15:35:57;15.95;;;7.22;;
48207;SDS011;33997;53.278;9.708;2022-11-20T15:38:23;14.40;;;7.43;;
48207;SDS011;33997;53.278;9.708;2022-11-20T15:40:48;12.77;;;7.93;;
48207;SDS011;33997;53.278;9.708;2022-11-20T15:43:14;12.45;;;7.82;;
48207;SDS011;33997;53.278;9.708;2022-11-20T15:45:41;11.95;;;7.60;;
48207;SDS011;33997;53.278;9.708;2022-11-20T15:50:57;15.30;;;8.98;;
48207;SDS011;33997;53.278;9.708;2022-11-20T15:53:39;16.38;;;10.02;;
48207;SDS011;33997;53.278;9.708;2022-11-20T15:56:06;15.43;;;9.97;;
48207;SDS011;33997;53.278;9.708;2022-11-20T15:58:36;19.90;;;10.60;;
48207;SDS011;33997;53.278;9.708;2022-11-20T16:01:02;15.02;;;9.93;;
48207;SDS011;33997;53.278;9.708;2022-11-20T16:03:27;19.02;;;11.18;;
48207;SDS011;33997;53.278;9.708;2022-11-20T16:05:53;17.52;;;10.55;;
48207;SDS011;33997;53.278;9.708;2022-11-20T16:08:18;17.58;;;10.82;;
48207;SDS011;33997;53.278;9.708;2022-11-20T16:10:44;18.58;;;11.27;;